sensor_id;sensor_type;location;lat;lon;timestamp;pressure;altitude;pressure_sealevel;temperature;humidity
60725;BME280;59881;36.722;-4.462;2023-04-06T00:00:51;100917.69;;;13.32;75.48
60725;BME280;59881;36.722;-4.462;2023-04-06T00:03:18;100794.59;;;12.55;75.62
60725;BME280;59881;36.722;-4.462;2023-04-06T00:05:44;100910.00;;;13.29;75.85
60725;BME280;59881;36.722;-4.462;2023-04-06T00:08:10;100712.44;;;12.10;75.78
60725;BME280;59881;36.722;-4.462;2023-04-06T00:10:36;100858.69;;;12.94;75.86
60725;BME280;59881;36.722;-4.462;2023-04-06T00:13:02;100891.84;;;13.11;76.12
60725;BME280;59881;36.722;-4.462;2023-04-06T00:15:27;100920.56;;;13.29;76.23
60725;BME280;59881;36.722;-4.462;2023-04-06T00:17:53;100929.34;;;13.29;76.33
60725;BME280;59881;36.722;-4.462;2023-04-06T00:20:19;100633.41;;;11.59;76.38
60725;BME280;59881;36.722;-4.462;2023-04-06T00:22:45;100715.53;;;12.04;76.70
60725;BME280;59881;36.722;-4.462;2023-04-06T00:25:11;100699.91;;;12.01;76.69
60725;BME280;59881;36.722;-4.462;2023-04-06T00:27:37;100902.69;;;13.19;76.80
60725;BME280;59881;36.722;-4.462;2023-04-06T00:30:06;100856.84;;;12.83;76.68
60725;BME280;59881;36.722;-4.462;2023-04-06T00:32:32;100805.28;;;12.54;76.91
60725;BME280;59881;36.722;-4.462;2023-04-06T00:34:58;100804.47;;;12.40;77.27
60725;BME280;59881;36.722;-4.462;2023-04-06T00:37:24;100883.00;;;12.99;77.62
60725;BME280;59881;36.722;-4.462;2023-04-06T00:39:49;100865.84;;;12.81;77.69
60725;BME280;59881;36.722;-4.462;2023-04-06T00:42:17;100803.06;;;12.48;77.89
60725;BME280;59881;36.722;-4.462;2023-04-06T00:44:57;100770.22;;;12.15;78.17
60725;BME280;59881;36.722;-4.462;2023-04-06T00:47:24;100912.03;;;13.12;78.68
60725;BME280;59881;36.722;-4.462;2023-04-06T00:49:53;100770.94;;;12.17;78.42
60725;BME280;59881;36.722;-4.462;2023-04-06T00:52:19;100922.22;;;13.05;78.49
60725;BME280;59881;36.722;-4.462;2023-04-06T00:54:45;100741.13;;;11.91;78.74
60725;BME280;59881;36.722;-4.462;2023-04-06T00:57:11;100599.81;;;11.24;78.76
60725;BME280;59881;36.722;-4.462;2023-04-06T00:59:38;100765.22;;;12.23;79.13
60725;BME280;59881;36.722;-4.462;2023-04-06T01:02:03;100807.72;;;12.44;79.09
60725;BME280;59881;36.722;-4.462;2023-04-06T01:04:29;100714.19;;;11.86;79.32
60725;BME280;59881;36.722;-4.462;2023-04-06T01:06:55;100884.06;;;12.97;79.70
60725;BME280;59881;36.722;-4.462;2023-04-06T01:09:21;100725.25;;;12.04;80.37
60725;BME280;59881;36.722;-4.462;2023-04-06T01:11:47;100804.44;;;12.53;80.47
60725;BME280;59881;36.722;-4.462;2023-04-06T01:14:12;100880.47;;;12.98;80.99
60725;BME280;59881;36.722;-4.462;2023-04-06T01:16:38;100771.56;;;12.20;80.68
60725;BME280;59881;36.722;-4.462;2023-04-06T01:19:13;100870.97;;;12.95;81.31
60725;BME280;59881;36.722;-4.462;2023-04-06T01:21:40;100748.25;;;12.14;81.20
60725;BME280;59881;36.722;-4.462;2023-04-06T01:24:07;100865.06;;;12.92;81.55
60725;BME280;59881;36.722;-4.462;2023-04-06T01:26:33;100866.13;;;12.89;81.41
60725;BME280;59881;36.722;-4.462;2023-04-06T01:28:59;100753.88;;;12.10;81.21
60725;BME280;59881;36.722;-4.462;2023-04-06T01:31:26;100871.13;;;12.81;81.53
60725;BME280;59881;36.722;-4.462;2023-04-06T01:33:52;100605.53;;;11.18;81.41
60725;BME280;59881;36.722;-4.462;2023-04-06T01:36:18;100857.63;;;12.73;81.31
60725;BME280;59881;36.722;-4.462;2023-04-06T01:38:44;100886.19;;;12.68;81.41
60725;BME280;59881;36.722;-4.462;2023-04-06T01:41:10;100779.63;;;12.06;81.57
60725;BME280;59881;36.722;-4.462;2023-04-06T01:43:36;100834.38;;;12.41;81.54
60725;BME280;59881;36.722;-4.462;2023-04-06T01:46:02;100838.47;;;12.58;81.68
60725;BME280;59881;36.722;-4.462;2023-04-06T01:48:28;100847.66;;;12.52;81.65
60725;BME280;59881;36.722;-4.462;2023-04-06T01:50:54;100658.47;;;11.41;81.92
60725;BME280;59881;36.722;-4.462;2023-04-06T01:53:20;100739.66;;;11.87;82.15
60725;BME280;59881;36.722;-4.462;2023-04-06T01:55:45;100607.44;;;11.03;82.14
60725;BME280;59881;36.722;-4.462;2023-04-06T01:58:12;100676.16;;;11.51;82.47
60725;BME280;59881;36.722;-4.462;2023-04-06T02:00:38;100657.50;;;11.42;82.47
60725;BME280;59881;36.722;-4.462;2023-04-06T02:03:03;100701.34;;;11.68;82.46
60725;BME280;59881;36.722;-4.462;2023-04-06T02:05:30;100834.44;;;12.52;82.67
60725;BME280;59881;36.722;-4.462;2023-04-06T02:07:56;100821.81;;;12.45;82.86
60725;BME280;59881;36.722;-4.462;2023-04-06T02:10:22;100573.50;;;10.98;82.53
60725;BME280;59881;36.722;-4.462;2023-04-06T02:12:49;100661.28;;;11.50;82.63
60725;BME280;59881;36.722;-4.462;2023-04-06T02:15:15;100826.63;;;12.51;82.68
60725;BME280;59881;36.722;-4.462;2023-04-06T02:17:41;100718.81;;;11.82;82.17
60725;BME280;59881;36.722;-4.462;2023-04-06T02:20:07;100817.44;;;12.43;82.25
60725;BME280;59881;36.722;-4.462;2023-04-06T02:22:35;100816.72;;;12.41;82.57
60725;BME280;59881;36.722;-4.462;2023-04-06T02:25:00;100784.56;;;12.24;82.23
60725;BME280;59881;36.722;-4.462;2023-04-06T02:27:26;100706.94;;;11.76;82.79
60725;BME280;59881;36.722;-4.462;2023-04-06T02:29:52;100820.00;;;12.45;82.56
60725;BME280;59881;36.722;-4.462;2023-04-06T02:32:17;100758.31;;;12.09;82.56
60725;BME280;59881;36.722;-4.462;2023-04-06T02:34:43;100817.25;;;12.47;82.70
60725;BME280;59881;36.722;-4.462;2023-04-06T02:37:08;100638.63;;;11.35;82.41
60725;BME280;59881;36.722;-4.462;2023-04-06T02:39:34;100820.00;;;12.45;82.20
60725;BME280;59881;36.722;-4.462;2023-04-06T02:42:00;100820.22;;;12.42;82.06
60725;BME280;59881;36.722;-4.462;2023-04-06T02:44:25;100817.19;;;12.35;81.56
60725;BME280;59881;36.722;-4.462;2023-04-06T02:46:51;100842.22;;;12.30;81.25
60725;BME280;59881;36.722;-4.462;2023-04-06T02:49:16;100694.00;;;11.48;81.32
60725;BME280;59881;36.722;-4.462;2023-04-06T02:51:42;100713.63;;;11.56;81.21
60725;BME280;59881;36.722;-4.462;2023-04-06T02:54:07;100829.38;;;12.12;80.96
60725;BME280;59881;36.722;-4.462;2023-04-06T02:56:33;100698.34;;;11.23;81.09
60725;BME280;59881;36.722;-4.462;2023-04-06T02:58:58;100772.16;;;11.74;81.64
60725;BME280;59881;36.722;-4.462;2023-04-06T03:01:25;100708.81;;;11.25;81.51
60725;BME280;59881;36.722;-4.462;2023-04-06T03:03:51;100820.13;;;11.94;81.52
60725;BME280;59881;36.722;-4.462;2023-04-06T03:06:16;100736.63;;;11.42;81.60
60725;BME280;59881;36.722;-4.462;2023-04-06T03:08:42;100784.63;;;11.59;81.63
60725;BME280;59881;36.722;-4.462;2023-04-06T03:11:07;100823.25;;;11.86;81.99
60725;BME280;59881;36.722;-4.462;2023-04-06T03:13:33;100768.94;;;11.45;81.84
60725;BME280;59881;36.722;-4.462;2023-04-06T03:15:58;100723.44;;;11.03;81.85
60725;BME280;59881;36.722;-4.462;2023-04-06T03:18:25;100833.72;;;11.75;82.05
60725;BME280;59881;36.722;-4.462;2023-04-06T03:20:51;100832.88;;;11.74;81.85
60725;BME280;59881;36.722;-4.462;2023-04-06T03:23:19;100542.53;;;9.98;81.49
60725;BME280;59881;36.722;-4.462;2023-04-06T03:25:46;100761.84;;;11.33;81.72
60725;BME280;59881;36.722;-4.462;2023-04-06T03:28:11;100676.28;;;10.73;81.97
60725;BME280;59881;36.722;-4.462;2023-04-06T03:30:37;100847.44;;;11.67;81.75
60725;BME280;59881;36.722;-4.462;2023-04-06T03:33:03;100654.25;;;10.61;81.53
60725;BME280;59881;36.722;-4.462;2023-04-06T03:35:28;100656.03;;;10.61;81.25
60725;BME280;59881;36.722;-4.462;2023-04-06T03:37:54;100794.56;;;11.43;80.80
60725;BME280;59881;36.722;-4.462;2023-04-06T03:40:19;100667.59;;;10.45;80.50
60725;BME280;59881;36.722;-4.462;2023-04-06T03:42:45;100841.94;;;11.57;80.84
60725;BME280;59881;36.722;-4.462;2023-04-06T03:45:10;100818.19;;;11.57;80.37
60725;BME280;59881;36.722;-4.462;2023-04-06T03:47:38;100690.19;;;10.75;79.86
60725;BME280;59881;36.722;-4.462;2023-04-06T03:50:03;100551.69;;;9.92;79.73
60725;BME280;59881;36.722;-4.462;2023-04-06T03:52:30;100614.16;;;10.30;80.18
60725;BME280;59881;36.722;-4.462;2023-04-06T03:54:55;100820.00;;;11.57;80.31
60725;BME280;59881;36.722;-4.462;2023-04-06T03:57:21;100818.00;;;11.60;80.43
60725;BME280;59881;36.722;-4.462;2023-04-06T03:59:46;100674.78;;;10.69;80.21
60725;BME280;59881;36.722;-4.462;2023-04-06T04:02:12;100754.75;;;11.33;80.44
60725;BME280;59881;36.722;-4.462;2023-04-06T04:04:37;100689.69;;;10.95;80.27
60725;BME280;59881;36.722;-4.462;2023-04-06T04:07:03;100809.13;;;11.49;80.17
60725;BME280;59881;36.722;-4.462;2023-04-06T04:09:29;100590.63;;;10.27;79.77
60725;BME280;59881;36.722;-4.462;2023-04-06T04:11:54;100847.13;;;11.59;80.06
60725;BME280;59881;36.722;-4.462;2023-04-06T04:14:20;100805.13;;;11.56;79.99
60725;BME280;59881;36.722;-4.462;2023-04-06T04:16:46;100807.88;;;11.54;80.35
60725;BME280;59881;36.722;-4.462;2023-04-06T04:19:11;100806.91;;;11.55;80.17
60725;BME280;59881;36.722;-4.462;2023-04-06T04:21:43;100810.50;;;11.54;79.86
60725;BME280;59881;36.722;-4.462;2023-04-06T04:24:10;100840.59;;;11.52;79.60
60725;BME280;59881;36.722;-4.462;2023-04-06T04:26:35;100825.91;;;11.48;79.42
60725;BME280;59881;36.722;-4.462;2023-04-06T04:29:01;100824.19;;;11.47;79.67
60725;BME280;59881;36.722;-4.462;2023-04-06T04:31:26;100813.78;;;11.45;79.51
60725;BME280;59881;36.722;-4.462;2023-04-06T04:33:52;100613.84;;;10.08;78.98
60725;BME280;59881;36.722;-4.462;2023-04-06T04:36:17;100836.03;;;11.41;78.94
60725;BME280;59881;36.722;-4.462;2023-04-06T04:38:43;100814.41;;;11.36;78.67
60725;BME280;59881;36.722;-4.462;2023-04-06T04:41:08;100605.56;;;9.87;77.97
60725;BME280;59881;36.722;-4.462;2023-04-06T04:43:34;100820.41;;;11.25;78.33
60725;BME280;59881;36.722;-4.462;2023-04-06T04:46:00;100632.97;;;9.97;77.77
60725;BME280;59881;36.722;-4.462;2023-04-06T04:48:25;100734.66;;;10.67;77.63
60725;BME280;59881;36.722;-4.462;2023-04-06T04:50:51;100711.81;;;10.40;77.49
60725;BME280;59881;36.722;-4.462;2023-04-06T04:53:16;100624.63;;;9.90;77.41
60725;BME280;59881;36.722;-4.462;2023-04-06T04:55:42;100645.31;;;10.09;77.22
60725;BME280;59881;36.722;-4.462;2023-04-06T04:58:07;100821.13;;;11.14;77.54
60725;BME280;59881;36.722;-4.462;2023-04-06T05:00:36;100827.31;;;11.13;77.65
60725;BME280;59881;36.722;-4.462;2023-04-06T05:03:03;100795.13;;;10.95;77.43
60725;BME280;59881;36.722;-4.462;2023-04-06T05:05:29;100748.78;;;10.66;77.18
60725;BME280;59881;36.722;-4.462;2023-04-06T05:07:55;100598.06;;;9.81;77.68
60725;BME280;59881;36.722;-4.462;2023-04-06T05:10:20;100750.53;;;10.52;77.95
60725;BME280;59881;36.722;-4.462;2023-04-06T05:12:46;100823.34;;;11.21;78.09
60725;BME280;59881;36.722;-4.462;2023-04-06T05:15:11;100829.25;;;11.24;77.74
60725;BME280;59881;36.722;-4.462;2023-04-06T05:17:37;100873.97;;;11.26;77.65
60725;BME280;59881;36.722;-4.462;2023-04-06T05:20:04;100831.13;;;11.22;77.40
60725;BME280;59881;36.722;-4.462;2023-04-06T05:22:30;100700.53;;;10.38;77.29
60725;BME280;59881;36.722;-4.462;2023-04-06T05:24:56;100754.97;;;10.65;77.14
60725;BME280;59881;36.722;-4.462;2023-04-06T05:27:21;100775.91;;;10.81;77.02
60725;BME280;59881;36.722;-4.462;2023-04-06T05:29:47;100760.81;;;10.70;76.77
60725;BME280;59881;36.722;-4.462;2023-04-06T05:32:12;100743.03;;;10.46;77.28
60725;BME280;59881;36.722;-4.462;2023-04-06T05:34:38;100788.53;;;10.75;77.18
60725;BME280;59881;36.722;-4.462;2023-04-06T05:37:04;100696.34;;;10.21;77.06
60725;BME280;59881;36.722;-4.462;2023-04-06T05:39:30;100650.13;;;9.76;77.15
60725;BME280;59881;36.722;-4.462;2023-04-06T05:41:56;100671.19;;;10.03;77.10
60725;BME280;59881;36.722;-4.462;2023-04-06T05:44:21;100644.28;;;9.85;77.58
60725;BME280;59881;36.722;-4.462;2023-04-06T05:46:47;100843.66;;;11.06;77.88
60725;BME280;59881;36.722;-4.462;2023-04-06T05:49:12;100680.78;;;10.04;77.42
60725;BME280;59881;36.722;-4.462;2023-04-06T05:51:38;100747.63;;;10.43;77.71
60725;BME280;59881;36.722;-4.462;2023-04-06T05:54:03;100811.81;;;10.69;77.78
60725;BME280;59881;36.722;-4.462;2023-04-06T05:56:29;100822.63;;;10.91;78.17
60725;BME280;59881;36.722;-4.462;2023-04-06T05:58:55;100833.06;;;10.93;77.97
60725;BME280;59881;36.722;-4.462;2023-04-06T06:01:21;100780.59;;;10.63;77.96
60725;BME280;59881;36.722;-4.462;2023-04-06T06:03:46;100748.16;;;10.35;78.12
60725;BME280;59881;36.722;-4.462;2023-04-06T06:06:12;100866.72;;;11.29;78.34
60725;BME280;59881;36.722;-4.462;2023-04-06T06:08:37;100653.22;;;10.09;78.18
60725;BME280;59881;36.722;-4.462;2023-04-06T06:11:03;100764.22;;;10.97;78.33
60725;BME280;59881;36.722;-4.462;2023-04-06T06:13:28;100758.13;;;10.97;77.67
60725;BME280;59881;36.722;-4.462;2023-04-06T06:15:54;100721.00;;;11.00;77.66
60725;BME280;59881;36.722;-4.462;2023-04-06T06:18:20;100773.97;;;11.48;77.25
60725;BME280;59881;36.722;-4.462;2023-04-06T06:20:45;100841.09;;;12.21;76.98
60725;BME280;59881;36.722;-4.462;2023-04-06T06:23:11;100756.53;;;11.84;76.06
60725;BME280;59881;36.722;-4.462;2023-04-06T06:25:36;100867.84;;;13.01;75.31
60725;BME280;59881;36.722;-4.462;2023-04-06T06:28:02;100799.13;;;13.13;74.25
60725;BME280;59881;36.722;-4.462;2023-04-06T06:30:27;100872.47;;;14.04;72.88
60725;BME280;59881;36.722;-4.462;2023-04-06T06:32:53;100682.06;;;13.11;70.76
60725;BME280;59881;36.722;-4.462;2023-04-06T06:35:18;100707.69;;;13.78;69.02
60725;BME280;59881;36.722;-4.462;2023-04-06T06:37:44;100755.81;;;14.49;67.15
60725;BME280;59881;36.722;-4.462;2023-04-06T06:40:10;100863.41;;;15.81;65.24
60725;BME280;59881;36.722;-4.462;2023-04-06T06:42:38;100819.59;;;16.06;63.32
60725;BME280;59881;36.722;-4.462;2023-04-06T06:45:05;100637.53;;;15.61;61.38
60725;BME280;59881;36.722;-4.462;2023-04-06T06:47:31;100766.13;;;16.88;58.93
60725;BME280;59881;36.722;-4.462;2023-04-06T06:49:56;100870.41;;;18.17;56.91
60725;BME280;59881;36.722;-4.462;2023-04-06T06:52:22;100863.59;;;18.60;55.29
60725;BME280;59881;36.722;-4.462;2023-04-06T06:54:49;100868.75;;;19.07;53.20
60725;BME280;59881;36.722;-4.462;2023-04-06T06:57:14;100623.97;;;18.19;50.96
60725;BME280;59881;36.722;-4.462;2023-04-06T06:59:40;100854.50;;;20.21;50.15
60725;BME280;59881;36.722;-4.462;2023-04-06T07:02:06;100679.63;;;19.63;47.78
60725;BME280;59881;36.722;-4.462;2023-04-06T07:04:31;100719.13;;;20.53;46.63
60725;BME280;59881;36.722;-4.462;2023-04-06T07:06:57;100775.69;;;21.48;44.90
60725;BME280;59881;36.722;-4.462;2023-04-06T07:09:22;100850.56;;;22.53;43.39
60725;BME280;59881;36.722;-4.462;2023-04-06T07:11:51;100799.25;;;22.48;42.39
60725;BME280;59881;36.722;-4.462;2023-04-06T07:14:16;100762.47;;;22.57;40.88
60725;BME280;59881;36.722;-4.462;2023-04-06T07:16:42;100763.88;;;23.28;39.83
60725;BME280;59881;36.722;-4.462;2023-04-06T07:19:10;100726.72;;;23.62;37.96
60725;BME280;59881;36.722;-4.462;2023-04-06T07:21:36;100862.66;;;25.11;36.94
60725;BME280;59881;36.722;-4.462;2023-04-06T07:24:01;100864.38;;;25.69;35.79
60725;BME280;59881;36.722;-4.462;2023-04-06T07:26:27;100775.47;;;25.54;34.78
60725;BME280;59881;36.722;-4.462;2023-04-06T07:28:53;100736.66;;;25.55;33.87
60725;BME280;59881;36.722;-4.462;2023-04-06T07:31:18;100865.31;;;26.72;33.04
60725;BME280;59881;36.722;-4.462;2023-04-06T07:33:44;100744.88;;;26.36;32.54
60725;BME280;59881;36.722;-4.462;2023-04-06T07:36:10;100744.31;;;26.81;31.63
60725;BME280;59881;36.722;-4.462;2023-04-06T07:38:35;100820.59;;;27.76;30.63
60725;BME280;59881;36.722;-4.462;2023-04-06T07:41:01;100848.31;;;28.37;29.76
60725;BME280;59881;36.722;-4.462;2023-04-06T07:43:29;100872.50;;;28.83;29.07
60725;BME280;59881;36.722;-4.462;2023-04-06T07:45:55;100871.97;;;29.32;28.20
60725;BME280;59881;36.722;-4.462;2023-04-06T07:48:22;100871.19;;;29.68;28.09
60725;BME280;59881;36.722;-4.462;2023-04-06T07:50:48;100843.72;;;29.83;26.95
60725;BME280;59881;36.722;-4.462;2023-04-06T07:53:15;100694.47;;;29.21;26.50
60725;BME280;59881;36.722;-4.462;2023-04-06T07:55:40;100835.31;;;30.40;26.17
60725;BME280;59881;36.722;-4.462;2023-04-06T07:58:06;100632.09;;;29.51;25.87
60725;BME280;59881;36.722;-4.462;2023-04-06T08:00:31;100893.00;;;31.44;24.85
60725;BME280;59881;36.722;-4.462;2023-04-06T08:02:57;100881.75;;;31.64;24.40
60725;BME280;59881;36.722;-4.462;2023-04-06T08:05:23;100885.88;;;31.79;24.73
60725;BME280;59881;36.722;-4.462;2023-04-06T08:07:48;100802.66;;;30.58;25.49
60725;BME280;59881;36.722;-4.462;2023-04-06T08:10:17;100916.03;;;30.88;25.35
60725;BME280;59881;36.722;-4.462;2023-04-06T08:12:42;100894.22;;;31.06;25.31
60725;BME280;59881;36.722;-4.462;2023-04-06T08:15:08;100464.19;;;28.20;25.01
60725;BME280;59881;36.722;-4.462;2023-04-06T08:17:34;100832.81;;;30.68;24.45
60725;BME280;59881;36.722;-4.462;2023-04-06T08:20:00;100855.56;;;31.40;24.32
60725;BME280;59881;36.722;-4.462;2023-04-06T08:22:28;100687.97;;;30.49;23.94
60725;BME280;59881;36.722;-4.462;2023-04-06T08:24:54;100829.50;;;32.03;23.86
60725;BME280;59881;36.722;-4.462;2023-04-06T08:27:20;100910.16;;;33.30;23.83
60725;BME280;59881;36.722;-4.462;2023-04-06T08:29:45;100826.53;;;33.41;22.73
60725;BME280;59881;36.722;-4.462;2023-04-06T08:32:12;100909.06;;;34.43;21.54
60725;BME280;59881;36.722;-4.462;2023-04-06T08:34:38;100856.66;;;34.29;21.44
60725;BME280;59881;36.722;-4.462;2023-04-06T08:37:04;100672.03;;;33.94;21.34
60725;BME280;59881;36.722;-4.462;2023-04-06T08:39:30;100911.22;;;35.97;20.24
60725;BME280;59881;36.722;-4.462;2023-04-06T08:41:56;100758.06;;;35.48;19.66
60725;BME280;59881;36.722;-4.462;2023-04-06T08:44:23;100786.47;;;35.90;18.74
60725;BME280;59881;36.722;-4.462;2023-04-06T08:46:49;100829.09;;;36.33;17.19
60725;BME280;59881;36.722;-4.462;2023-04-06T08:49:16;100916.28;;;37.25;17.42
60725;BME280;59881;36.722;-4.462;2023-04-06T08:51:42;100830.03;;;37.00;16.45
60725;BME280;59881;36.722;-4.462;2023-04-06T08:54:07;100868.16;;;37.63;16.40
60725;BME280;59881;36.722;-4.462;2023-04-06T08:56:36;100908.09;;;38.26;15.80
60725;BME280;59881;36.722;-4.462;2023-04-06T08:59:02;100907.34;;;38.10;14.92
60725;BME280;59881;36.722;-4.462;2023-04-06T09:01:28;100923.84;;;38.10;15.89
60725;BME280;59881;36.722;-4.462;2023-04-06T09:03:56;100932.84;;;38.26;15.72
60725;BME280;59881;36.722;-4.462;2023-04-06T09:06:23;100940.25;;;38.36;15.14
60725;BME280;59881;36.722;-4.462;2023-04-06T09:08:48;100873.84;;;37.87;14.81
60725;BME280;59881;36.722;-4.462;2023-04-06T09:11:14;100757.75;;;37.36;14.45
60725;BME280;59881;36.722;-4.462;2023-04-06T09:13:54;100873.31;;;38.45;14.01
60725;BME280;59881;36.722;-4.462;2023-04-06T09:16:20;100823.09;;;38.69;13.63
60725;BME280;59881;36.722;-4.462;2023-04-06T09:18:47;100925.75;;;40.02;13.06
60725;BME280;59881;36.722;-4.462;2023-04-06T09:21:13;100927.72;;;40.82;12.25
60725;BME280;59881;36.722;-4.462;2023-04-06T09:23:41;100923.81;;;41.02;11.81
60725;BME280;59881;36.722;-4.462;2023-04-06T09:26:17;100894.00;;;41.18;11.80
60725;BME280;59881;36.722;-4.462;2023-04-06T09:28:52;100828.59;;;40.81;11.03
60725;BME280;59881;36.722;-4.462;2023-04-06T09:31:23;100946.75;;;41.22;11.43
60725;BME280;59881;36.722;-4.462;2023-04-06T09:33:48;100892.47;;;40.93;10.37
60725;BME280;59881;36.722;-4.462;2023-04-06T09:36:14;100837.28;;;40.36;10.35
60725;BME280;59881;36.722;-4.462;2023-04-06T09:39:02;100951.19;;;40.61;10.20
60725;BME280;59881;36.722;-4.462;2023-04-06T09:41:30;100949.94;;;41.10;9.93
60725;BME280;59881;36.722;-4.462;2023-04-06T09:44:06;100950.63;;;41.02;10.46
60725;BME280;59881;36.722;-4.462;2023-04-06T09:46:36;100952.63;;;40.39;10.38
60725;BME280;59881;36.722;-4.462;2023-04-06T09:49:03;100930.91;;;40.08;10.44
60725;BME280;59881;36.722;-4.462;2023-04-06T09:51:58;100951.94;;;40.28;9.83
60725;BME280;59881;36.722;-4.462;2023-04-06T09:54:28;100967.44;;;39.71;9.35
60725;BME280;59881;36.722;-4.462;2023-04-06T10:02:41;100966.56;;;39.07;9.59
60725;BME280;59881;36.722;-4.462;2023-04-06T10:05:26;100951.66;;;38.03;10.21
60725;BME280;59881;36.722;-4.462;2023-04-06T10:07:57;100972.13;;;38.47;9.84
60725;BME280;59881;36.722;-4.462;2023-04-06T10:10:26;100749.03;;;37.13;9.89
60725;BME280;59881;36.722;-4.462;2023-04-06T10:12:53;100970.06;;;38.08;9.94
60725;BME280;59881;36.722;-4.462;2023-04-06T10:15:21;100989.56;;;38.22;9.48
60725;BME280;59881;36.722;-4.462;2023-04-06T10:17:47;100975.00;;;38.76;9.55
60725;BME280;59881;36.722;-4.462;2023-04-06T10:20:23;100859.00;;;38.54;9.65
60725;BME280;59881;36.722;-4.462;2023-04-06T10:25:29;100986.78;;;36.88;9.65
60725;BME280;59881;36.722;-4.462;2023-04-06T10:28:08;100996.16;;;36.30;10.12
60725;BME280;59881;36.722;-4.462;2023-04-06T10:30:34;100979.03;;;36.65;9.88
60725;BME280;59881;36.722;-4.462;2023-04-06T10:33:01;101007.09;;;36.93;10.05
60725;BME280;59881;36.722;-4.462;2023-04-06T10:35:39;100906.88;;;36.95;9.53
60725;BME280;59881;36.722;-4.462;2023-04-06T10:38:05;100869.56;;;38.26;9.13
60725;BME280;59881;36.722;-4.462;2023-04-06T10:40:31;100979.97;;;38.09;9.32
60725;BME280;59881;36.722;-4.462;2023-04-06T10:43:10;100983.31;;;37.34;10.31
60725;BME280;59881;36.722;-4.462;2023-04-06T10:45:37;100996.19;;;37.44;10.44
60725;BME280;59881;36.722;-4.462;2023-04-06T10:48:16;100999.78;;;35.60;10.80
60725;BME280;59881;36.722;-4.462;2023-04-06T10:50:48;100993.88;;;31.73;13.26
60725;BME280;59881;36.722;-4.462;2023-04-06T10:53:27;101000.28;;;28.94;16.02
60725;BME280;59881;36.722;-4.462;2023-04-06T10:55:55;101004.84;;;27.48;17.04
60725;BME280;59881;36.722;-4.462;2023-04-06T10:58:25;101021.44;;;26.42;18.12
60725;BME280;59881;36.722;-4.462;2023-04-06T11:00:51;101017.81;;;25.78;18.76
60725;BME280;59881;36.722;-4.462;2023-04-06T11:03:18;101000.03;;;25.41;18.83
60725;BME280;59881;36.722;-4.462;2023-04-06T11:05:48;101003.66;;;25.12;18.86
60725;BME280;59881;36.722;-4.462;2023-04-06T11:08:31;101012.06;;;24.87;19.85
60725;BME280;59881;36.722;-4.462;2023-04-06T11:11:24;100976.19;;;23.98;20.59
60725;BME280;59881;36.722;-4.462;2023-04-06T11:13:56;100874.69;;;23.16;21.34
60725;BME280;59881;36.722;-4.462;2023-04-06T11:16:27;101011.53;;;23.94;21.23
60725;BME280;59881;36.722;-4.462;2023-04-06T11:18:57;101006.44;;;24.00;20.82
60725;BME280;59881;36.722;-4.462;2023-04-06T11:24:13;100974.13;;;23.85;21.65
60725;BME280;59881;36.722;-4.462;2023-04-06T11:26:57;100896.31;;;22.91;22.21
60725;BME280;59881;36.722;-4.462;2023-04-06T11:29:30;101010.09;;;23.38;21.44
60725;BME280;59881;36.722;-4.462;2023-04-06T11:32:04;101003.88;;;23.37;22.01
60725;BME280;59881;36.722;-4.462;2023-04-06T11:34:32;101006.81;;;23.27;22.47
60725;BME280;59881;36.722;-4.462;2023-04-06T11:37:01;101005.94;;;22.96;22.18
60725;BME280;59881;36.722;-4.462;2023-04-06T11:39:28;100913.28;;;22.13;22.74
60725;BME280;59881;36.722;-4.462;2023-04-06T11:41:59;101001.88;;;22.68;22.29
60725;BME280;59881;36.722;-4.462;2023-04-06T11:46:57;100999.31;;;22.27;22.52
60725;BME280;59881;36.722;-4.462;2023-04-06T11:49:27;101016.06;;;22.13;22.66
60725;BME280;59881;36.722;-4.462;2023-04-06T11:51:53;101018.44;;;22.16;23.39
60725;BME280;59881;36.722;-4.462;2023-04-06T11:54:33;101004.50;;;22.21;24.48
60725;BME280;59881;36.722;-4.462;2023-04-06T11:56:58;100906.31;;;21.79;24.13
60725;BME280;59881;36.722;-4.462;2023-04-06T11:59:26;101028.75;;;22.60;23.85
60725;BME280;59881;36.722;-4.462;2023-04-06T12:01:52;101014.56;;;22.35;22.61
60725;BME280;59881;36.722;-4.462;2023-04-06T12:04:18;100889.25;;;21.47;23.70
60725;BME280;59881;36.722;-4.462;2023-04-06T12:06:44;101016.25;;;22.28;23.81
60725;BME280;59881;36.722;-4.462;2023-04-06T12:09:10;100927.06;;;21.85;23.88
60725;BME280;59881;36.722;-4.462;2023-04-06T12:11:36;100794.28;;;21.25;23.58
60725;BME280;59881;36.722;-4.462;2023-04-06T12:14:01;100942.81;;;21.96;23.32
60725;BME280;59881;36.722;-4.462;2023-04-06T12:16:30;101009.53;;;22.24;23.34
60725;BME280;59881;36.722;-4.462;2023-04-06T12:18:56;101022.59;;;22.35;23.90
60725;BME280;59881;36.722;-4.462;2023-04-06T12:21:21;100889.59;;;21.44;23.96
60725;BME280;59881;36.722;-4.462;2023-04-06T12:23:47;100875.84;;;21.22;23.50
60725;BME280;59881;36.722;-4.462;2023-04-06T12:26:13;101005.03;;;21.75;23.58
60725;BME280;59881;36.722;-4.462;2023-04-06T12:28:38;101019.44;;;21.66;23.52
60725;BME280;59881;36.722;-4.462;2023-04-06T12:31:04;101037.69;;;21.46;24.08
60725;BME280;59881;36.722;-4.462;2023-04-06T12:33:29;101017.28;;;21.61;24.53
60725;BME280;59881;36.722;-4.462;2023-04-06T12:35:55;101004.94;;;21.34;24.78
60725;BME280;59881;36.722;-4.462;2023-04-06T12:38:21;100901.22;;;20.77;24.92
60725;BME280;59881;36.722;-4.462;2023-04-06T12:40:47;100874.84;;;20.48;25.87
60725;BME280;59881;36.722;-4.462;2023-04-06T12:43:12;101013.00;;;21.34;25.84
60725;BME280;59881;36.722;-4.462;2023-04-06T12:45:39;100928.88;;;20.86;25.55
60725;BME280;59881;36.722;-4.462;2023-04-06T12:48:06;100937.91;;;20.93;25.62
60725;BME280;59881;36.722;-4.462;2023-04-06T12:50:32;101019.25;;;21.51;25.95
60725;BME280;59881;36.722;-4.462;2023-04-06T12:52:57;100796.63;;;20.12;25.61